createdAt,value
2022-08-30T00:02:05.977Z,1.88
2022-08-30T00:04:32.759Z,2.00
2022-08-30T00:07:03.662Z,2.35
2022-08-30T00:09:32.378Z,2.47
2022-08-30T00:11:59.208Z,1.98
2022-08-30T00:14:27.386Z,2.50
2022-08-30T00:17:04.652Z,1.85
2022-08-30T00:19:31.525Z,1.83
2022-08-30T00:21:58.305Z,2.33
2022-08-30T00:24:25.581Z,2.50
2022-08-30T00:26:54.363Z,2.25
2022-08-30T00:29:23.103Z,2.67
2022-08-30T00:31:54.771Z,2.58
2022-08-30T00:34:21.512Z,2.45
2022-08-30T00:36:48.260Z,2.47
2022-08-30T00:39:14.931Z,2.20
2022-08-30T00:41:41.706Z,2.65
2022-08-30T00:44:09.623Z,2.38
2022-08-30T00:46:36.409Z,2.38
2022-08-30T00:49:09.077Z,2.78
2022-08-30T00:51:36.048Z,2.40
2022-08-30T00:54:03.627Z,2.80
2022-08-30T00:56:32.381Z,1.98
2022-08-30T00:59:02.967Z,2.40
2022-08-30T01:01:34.541Z,2.88
2022-08-30T01:04:05.932Z,2.50
2022-08-30T01:06:36.240Z,2.42
2022-08-30T01:09:07.372Z,3.38
2022-08-30T01:11:38.288Z,3.05
2022-08-30T01:14:09.020Z,2.72
2022-08-30T01:19:21.437Z,2.60
2022-08-30T01:21:54.986Z,2.50
2022-08-30T01:24:26.325Z,3.42
2022-08-30T01:26:55.930Z,2.38
2022-08-30T01:29:26.390Z,2.88
2022-08-30T01:31:56.238Z,2.83
2022-08-30T01:34:23.093Z,3.72
2022-08-30T01:36:50.507Z,2.88
2022-08-30T01:39:20.504Z,2.47
2022-08-30T01:41:47.457Z,2.83
2022-08-30T01:44:14.922Z,2.97
2022-08-30T01:46:49.045Z,3.08
2022-08-30T01:49:27.526Z,3.05
2022-08-30T01:52:00.481Z,3.08
2022-08-30T01:54:38.219Z,3.10
2022-08-30T01:57:09.809Z,2.95
2022-08-30T01:59:37.608Z,3.15
2022-08-30T02:02:07.400Z,3.65
2022-08-30T02:04:36.841Z,3.50
2022-08-30T02:07:04.623Z,2.70
2022-08-30T02:09:31.387Z,2.85
2022-08-30T02:11:58.062Z,3.08
2022-08-30T02:14:27.448Z,3.15
2022-08-30T02:16:57.074Z,3.47
2022-08-30T02:19:24.054Z,3.20
2022-08-30T02:21:52.138Z,2.95
2022-08-30T02:24:19.140Z,4.10
2022-08-30T02:26:45.906Z,3.20
2022-08-30T02:29:15.926Z,3.75
2022-08-30T02:31:42.619Z,3.28
2022-08-30T02:34:14.552Z,3.15
2022-08-30T02:36:44.062Z,3.60
2022-08-30T02:39:16.472Z,3.38
2022-08-30T02:41:43.205Z,3.75
2022-08-30T02:44:13.149Z,3.38
2022-08-30T02:46:43.721Z,2.78
2022-08-30T02:49:32.786Z,3.35
2022-08-30T02:52:02.082Z,3.42
2022-08-30T02:54:28.863Z,3.10
2022-08-30T02:56:56.263Z,3.88
2022-08-30T02:59:25.361Z,3.67
2022-08-30T03:01:52.103Z,3.35
2022-08-30T03:04:19.127Z,3.45
2022-08-30T03:06:54.571Z,3.88
2022-08-30T03:09:23.604Z,4.68
2022-08-30T03:11:52.731Z,3.92
2022-08-30T03:14:19.697Z,3.70
2022-08-30T03:16:49.305Z,3.35
2022-08-30T03:19:17.374Z,3.38
2022-08-30T03:21:46.542Z,3.58
2022-08-30T03:24:13.642Z,3.60
2022-08-30T03:26:43.106Z,3.60
2022-08-30T03:29:13.124Z,3.55
2022-08-30T03:31:52.938Z,3.50
2022-08-30T03:34:21.735Z,3.70
2022-08-30T03:36:51.217Z,4.00
2022-08-30T03:39:17.989Z,3.58
2022-08-30T03:41:45.773Z,4.07
2022-08-30T03:44:12.693Z,3.88
2022-08-30T03:46:45.128Z,3.85
2022-08-30T03:49:17.369Z,3.40
2022-08-30T03:51:44.261Z,3.35
2022-08-30T03:54:11.649Z,4.00
2022-08-30T03:56:40.938Z,3.40
2022-08-30T03:59:10.766Z,3.30
2022-08-30T04:01:44.005Z,3.42
2022-08-30T04:04:16.295Z,3.63
2022-08-30T04:06:46.572Z,3.63
2022-08-30T04:09:15.771Z,4.57
2022-08-30T04:11:42.567Z,3.65
2022-08-30T04:14:11.899Z,3.63
2022-08-30T04:16:38.673Z,3.85
2022-08-30T04:19:08.494Z,4.32
2022-08-30T04:21:42.934Z,3.78
2022-08-30T04:24:15.662Z,3.38
2022-08-30T04:26:45.370Z,4.95
2022-08-30T04:29:12.284Z,3.60
2022-08-30T04:31:41.314Z,3.22
2022-08-30T04:34:10.566Z,4.10
2022-08-30T04:36:37.270Z,3.95
2022-08-30T04:39:09.649Z,3.78
2022-08-30T04:44:03.680Z,3.20
2022-08-30T04:46:35.953Z,3.40
2022-08-30T04:49:11.341Z,3.05
2022-08-30T04:51:38.001Z,3.67
2022-08-30T04:54:05.181Z,3.90
2022-08-30T04:56:33.465Z,3.45
2022-08-30T04:59:00.188Z,3.17
2022-08-30T05:01:30.517Z,3.55
2022-08-30T05:03:58.435Z,4.10
2022-08-30T05:06:27.813Z,3.72
2022-08-30T05:08:55.216Z,3.85
2022-08-30T05:11:22.021Z,4.20
2022-08-30T05:13:50.849Z,3.35
2022-08-30T05:16:18.116Z,3.97
2022-08-30T05:18:46.133Z,3.80
2022-08-30T05:21:15.857Z,4.20
2022-08-30T05:23:44.089Z,3.60
2022-08-30T05:26:23.090Z,3.28
2022-08-30T05:28:52.263Z,4.13
2022-08-30T05:31:23.576Z,4.45
2022-08-30T05:33:51.937Z,3.53
2022-08-30T05:36:20.928Z,4.28
2022-08-30T05:38:47.819Z,3.97
2022-08-30T05:41:14.574Z,3.47
2022-08-30T05:43:41.482Z,4.20
2022-08-30T05:46:11.311Z,3.50
2022-08-30T05:48:38.892Z,3.65
2022-08-30T05:51:14.992Z,5.65
2022-08-30T05:53:42.010Z,4.05
2022-08-30T05:56:11.824Z,3.80
2022-08-30T05:58:39.349Z,3.65
2022-08-30T06:01:06.777Z,3.97
2022-08-30T06:03:34.200Z,3.67
2022-08-30T06:06:02.426Z,3.83
2022-08-30T06:08:29.466Z,3.72
2022-08-30T06:10:56.263Z,5.22
2022-08-30T06:13:23.491Z,4.43
2022-08-30T06:15:51.128Z,3.92
2022-08-30T06:18:18.183Z,4.53
2022-08-30T06:23:18.063Z,3.67
2022-08-30T06:25:45.137Z,3.53
2022-08-30T06:28:12.527Z,4.00
2022-08-30T06:30:41.222Z,3.67
2022-08-30T06:33:08.549Z,3.42
2022-08-30T06:35:46.761Z,4.03
2022-08-30T06:38:22.555Z,4.13
2022-08-30T06:40:50.889Z,3.83
2022-08-30T06:43:17.535Z,4.45
2022-08-30T06:45:44.172Z,3.95
2022-08-30T06:48:10.892Z,4.15
2022-08-30T06:50:37.610Z,4.00
2022-08-30T06:53:05.934Z,3.80
2022-08-30T06:55:35.523Z,4.38
2022-08-30T06:58:03.509Z,4.18
2022-08-30T07:00:31.007Z,3.97
2022-08-30T07:02:58.494Z,4.50
2022-08-30T07:05:25.254Z,4.47
2022-08-30T07:07:53.861Z,4.25
2022-08-30T07:10:23.837Z,4.30
2022-08-30T07:12:50.574Z,4.10
2022-08-30T07:15:20.437Z,4.20
2022-08-30T07:18:05.510Z,4.43
2022-08-30T07:20:40.657Z,4.72
2022-08-30T07:23:08.932Z,4.10
2022-08-30T07:25:39.697Z,4.80
2022-08-30T07:28:10.402Z,4.60
2022-08-30T07:30:37.265Z,4.18
2022-08-30T07:33:04.784Z,4.72
2022-08-30T07:35:33.493Z,4.05
2022-08-30T07:38:00.952Z,4.35
2022-08-30T07:40:27.743Z,4.10
2022-08-30T07:42:54.432Z,4.18
2022-08-30T07:45:21.227Z,4.93
2022-08-30T07:47:47.936Z,4.65
2022-08-30T07:50:15.044Z,5.13
2022-08-30T07:52:41.734Z,4.72
2022-08-30T07:55:08.981Z,4.45
2022-08-30T07:57:35.672Z,4.63
2022-08-30T08:00:02.774Z,4.82
2022-08-30T08:02:40.674Z,4.05
2022-08-30T08:05:09.633Z,4.65
2022-08-30T08:07:36.971Z,4.53
2022-08-30T08:10:06.920Z,3.88
2022-08-30T08:12:34.346Z,4.20
2022-08-30T08:15:04.157Z,3.67
2022-08-30T08:17:34.830Z,4.15
2022-08-30T08:20:01.748Z,4.40
2022-08-30T08:22:28.457Z,3.97
2022-08-30T08:24:55.157Z,4.00
2022-08-30T08:27:21.950Z,4.28
2022-08-30T08:29:48.677Z,3.50
2022-08-30T08:32:15.324Z,3.35
2022-08-30T08:34:42.066Z,3.33
2022-08-30T08:37:08.771Z,3.70
2022-08-30T08:39:35.424Z,3.75
2022-08-30T08:42:22.583Z,3.20
2022-08-30T08:44:50.625Z,2.78
2022-08-30T08:48:15.979Z,2.67
2022-08-30T08:51:02.915Z,2.45
2022-08-30T08:53:50.435Z,3.00
2022-08-30T08:56:19.230Z,3.47
2022-08-30T08:58:50.519Z,3.38
2022-08-30T09:01:19.762Z,4.10
2022-08-30T09:03:47.617Z,3.55
2022-08-30T09:06:51.952Z,3.97
2022-08-30T09:09:23.889Z,4.15
2022-08-30T09:11:50.567Z,3.45
2022-08-30T09:14:25.092Z,3.03
2022-08-30T09:17:09.888Z,3.63
2022-08-30T09:19:40.022Z,3.90
2022-08-30T09:22:26.339Z,3.90
2022-08-30T09:25:00.671Z,4.18
2022-08-30T09:27:30.972Z,4.30
2022-08-30T09:30:07.625Z,3.95
2022-08-30T09:32:54.643Z,3.72
2022-08-30T09:35:25.104Z,3.03
2022-08-30T09:37:54.236Z,3.38
2022-08-30T09:40:44.357Z,3.97
2022-08-30T09:43:17.350Z,3.63
2022-08-30T09:46:04.567Z,3.15
2022-08-30T09:48:45.160Z,3.42
2022-08-30T09:51:11.929Z,3.38
2022-08-30T09:54:18.517Z,3.53
2022-08-30T09:57:05.337Z,2.83
2022-08-30T09:59:45.916Z,3.00
2022-08-30T10:02:30.231Z,3.17
2022-08-30T10:05:15.702Z,3.40
2022-08-30T10:07:54.634Z,2.90
2022-08-30T10:10:45.858Z,3.00
2022-08-30T10:13:47.619Z,2.78
2022-08-30T10:16:36.801Z,2.65
2022-08-30T10:19:25.235Z,2.83
2022-08-30T10:21:58.097Z,2.58
2022-08-30T10:24:33.469Z,2.50
2022-08-30T10:27:09.166Z,2.85
2022-08-30T10:29:48.354Z,2.70
2022-08-30T10:32:26.249Z,2.42
2022-08-30T10:34:57.463Z,2.28
2022-08-30T10:37:31.429Z,2.35
2022-08-30T10:40:33.839Z,2.30
2022-08-30T10:43:05.541Z,2.70
2022-08-30T10:45:35.944Z,2.53
2022-08-30T10:48:31.342Z,2.05
2022-08-30T10:51:06.690Z,2.40
2022-08-30T10:53:58.812Z,2.25
2022-08-30T10:56:29.323Z,2.20
2022-08-30T10:58:58.291Z,2.58
2022-08-30T11:01:56.156Z,2.42
2022-08-30T11:04:48.672Z,2.17
2022-08-30T11:07:38.438Z,2.13
2022-08-30T11:10:11.714Z,2.20
2022-08-30T11:12:44.130Z,2.40
2022-08-30T11:15:23.218Z,2.15
2022-08-30T11:18:11.092Z,2.00
2022-08-30T11:20:44.732Z,1.83
2022-08-30T11:23:32.759Z,2.15
2022-08-30T11:26:13.994Z,2.15
2022-08-30T11:28:47.210Z,2.10
2022-08-30T11:31:23.657Z,1.80
2022-08-30T11:33:57.712Z,1.50
2022-08-30T11:36:37.455Z,2.00
2022-08-30T11:39:10.446Z,2.40
2022-08-30T11:41:41.432Z,1.65
2022-08-30T11:46:58.465Z,1.73
2022-08-30T11:49:46.275Z,2.05
2022-08-30T11:52:29.760Z,2.50
2022-08-30T11:55:22.327Z,1.77
2022-08-30T12:00:37.154Z,1.90
2022-08-30T12:03:07.492Z,2.00
2022-08-30T12:05:40.753Z,1.83
2022-08-30T12:08:21.132Z,1.90
2022-08-30T12:10:56.337Z,2.08
2022-08-30T12:13:36.938Z,1.88
2022-08-30T12:16:19.641Z,1.90
2022-08-30T12:18:51.052Z,1.70
2022-08-30T12:21:17.660Z,2.00
2022-08-30T12:24:22.177Z,2.40
2022-08-30T12:26:52.382Z,1.90
2022-08-30T12:29:23.050Z,2.35
2022-08-30T12:31:59.196Z,2.30
2022-08-30T12:34:34.961Z,1.95
2022-08-30T12:37:04.567Z,2.00
2022-08-30T12:39:43.556Z,1.90
2022-08-30T12:42:23.301Z,1.75
2022-08-30T12:44:59.245Z,2.13
2022-08-30T12:47:36.643Z,2.15
2022-08-30T12:50:06.099Z,2.22
2022-08-30T12:52:44.988Z,1.90
2022-08-30T12:55:20.058Z,1.63
2022-08-30T12:58:09.206Z,2.10
2022-08-30T13:00:45.741Z,2.13
2022-08-30T13:03:34.904Z,1.95
2022-08-30T13:06:02.859Z,1.80
2022-08-30T13:08:38.437Z,1.50
2022-08-30T13:11:09.239Z,1.63
2022-08-30T13:13:46.032Z,1.42
2022-08-30T13:16:20.408Z,1.85
2022-08-30T13:19:22.474Z,1.77
2022-08-30T13:21:56.852Z,1.52
2022-08-30T13:24:25.846Z,1.55
2022-08-30T13:26:55.848Z,1.65
2022-08-30T13:29:26.339Z,1.92
2022-08-30T13:31:53.710Z,2.00
2022-08-30T13:34:22.405Z,1.60
2022-08-30T13:36:57.942Z,2.40
2022-08-30T13:39:25.400Z,1.33
2022-08-30T13:41:52.217Z,2.15
2022-08-30T13:44:19.388Z,1.75
2022-08-30T13:46:54.235Z,1.95
2022-08-30T13:49:45.653Z,1.63
2022-08-30T13:52:21.274Z,1.35
2022-08-30T13:54:50.888Z,1.52
2022-08-30T14:00:12.335Z,1.77
2022-08-30T14:05:47.071Z,1.88
2022-08-30T14:08:03.605Z,1.63
2022-08-30T14:10:32.473Z,2.13
2022-08-30T14:13:08.525Z,1.80
2022-08-30T14:15:38.821Z,1.80
2022-08-30T14:18:07.276Z,1.42
2022-08-30T14:20:35.394Z,1.63
2022-08-30T14:23:07.562Z,1.70
2022-08-30T14:25:37.571Z,2.20
2022-08-30T14:28:04.337Z,1.33
2022-08-30T14:30:31.745Z,1.60
2022-08-30T14:32:59.991Z,1.77
2022-08-30T14:35:26.708Z,1.52
2022-08-30T14:37:54.287Z,1.30
2022-08-30T14:40:21.309Z,1.60
2022-08-30T14:42:48.090Z,1.48
2022-08-30T14:45:15.018Z,1.63
2022-08-30T14:47:41.740Z,1.60
2022-08-30T14:50:09.209Z,1.63
2022-08-30T14:52:36.895Z,1.40
2022-08-30T14:55:08.941Z,1.73
2022-08-30T14:57:38.330Z,1.40
2022-08-30T15:00:06.808Z,1.33
2022-08-30T15:02:34.906Z,1.58
2022-08-30T15:05:01.806Z,1.65
2022-08-30T15:07:28.586Z,1.58
2022-08-30T15:09:55.317Z,2.15
2022-08-30T15:12:22.080Z,1.38
2022-08-30T15:14:48.784Z,1.60
2022-08-30T15:17:17.786Z,1.40
2022-08-30T15:19:44.992Z,1.33
2022-08-30T15:22:11.732Z,1.42
2022-08-30T15:24:40.697Z,1.80
2022-08-30T15:27:07.505Z,1.75
2022-08-30T15:29:34.372Z,1.35
2022-08-30T15:32:02.538Z,1.48
2022-08-30T15:34:30.128Z,1.80
2022-08-30T15:36:57.589Z,1.40
2022-08-30T15:39:24.774Z,1.50
2022-08-30T15:41:55.977Z,1.52
2022-08-30T15:44:25.400Z,1.45
2022-08-30T15:46:52.221Z,1.30
2022-08-30T15:49:21.422Z,1.30
2022-08-30T15:51:51.571Z,1.45
2022-08-30T15:54:22.412Z,1.00
2022-08-30T15:56:49.206Z,1.38
2022-08-30T15:59:17.468Z,1.05
2022-08-30T16:01:48.214Z,1.30
2022-08-30T16:04:17.020Z,1.08
2022-08-30T16:06:46.319Z,1.27
2022-08-30T16:09:13.708Z,1.25
2022-08-30T16:11:40.563Z,1.42
2022-08-30T16:14:08.170Z,1.50
2022-08-30T16:16:37.350Z,1.27
2022-08-30T16:19:05.085Z,1.00
2022-08-30T16:21:36.691Z,1.00
2022-08-30T16:24:05.458Z,1.38
2022-08-30T16:26:33.462Z,1.08
2022-08-30T16:29:00.477Z,1.05
2022-08-30T16:31:29.350Z,1.23
2022-08-30T16:34:02.478Z,1.42
2022-08-30T16:36:31.022Z,1.27
2022-08-30T16:38:58.476Z,1.00
2022-08-30T16:41:28.171Z,1.17
2022-08-30T16:43:55.719Z,1.42
2022-08-30T16:46:26.958Z,1.40
2022-08-30T16:48:59.280Z,0.98
2022-08-30T16:51:31.452Z,1.40
2022-08-30T16:54:02.379Z,1.20
2022-08-30T16:56:30.747Z,1.23
2022-08-30T16:59:03.771Z,1.63
2022-08-30T17:01:44.774Z,1.48
2022-08-30T17:04:13.765Z,1.45
2022-08-30T17:06:47.614Z,1.17
2022-08-30T17:09:15.260Z,1.33
2022-08-30T17:11:48.128Z,1.15
2022-08-30T17:14:16.349Z,1.25
2022-08-30T17:16:52.020Z,1.20
2022-08-30T17:19:18.757Z,1.13
2022-08-30T17:21:55.670Z,1.38
2022-08-30T17:24:22.428Z,1.40
2022-08-30T17:26:54.542Z,1.23
2022-08-30T17:29:26.214Z,1.40
2022-08-30T17:31:53.097Z,1.13
2022-08-30T17:34:23.419Z,1.17
2022-08-30T17:36:56.027Z,1.35
2022-08-30T17:39:27.159Z,1.30
2022-08-30T17:42:00.898Z,1.15
2022-08-30T17:44:28.945Z,1.30
2022-08-30T17:46:59.633Z,1.00
2022-08-30T17:49:30.412Z,1.10
2022-08-30T17:51:59.282Z,1.20
2022-08-30T17:54:30.409Z,1.42
2022-08-30T17:57:00.069Z,1.55
2022-08-30T18:02:15.376Z,1.20
2022-08-30T18:04:52.925Z,1.20
2022-08-30T18:07:20.795Z,1.05
2022-08-30T18:09:55.617Z,1.67
2022-08-30T18:12:23.248Z,1.48
2022-08-30T18:14:52.617Z,1.10
2022-08-30T18:17:21.948Z,1.17
2022-08-30T18:19:50.164Z,1.25
2022-08-30T18:22:17.583Z,1.38
2022-08-30T18:24:48.814Z,1.40
2022-08-30T18:27:15.646Z,1.10
2022-08-30T18:29:44.733Z,1.40
2022-08-30T18:32:11.614Z,1.00
2022-08-30T18:34:40.284Z,1.33
2022-08-30T18:37:16.927Z,1.33
2022-08-30T18:39:43.660Z,1.48
2022-08-30T18:42:12.689Z,0.93
2022-08-30T18:44:43.508Z,1.30
2022-08-30T18:47:14.367Z,1.15
2022-08-30T18:49:42.232Z,1.15
2022-08-30T18:52:09.959Z,1.60
2022-08-30T18:54:49.774Z,1.17
2022-08-30T18:57:19.326Z,1.05
2022-08-30T18:59:49.359Z,1.00
2022-08-30T19:02:17.437Z,1.13
2022-08-30T19:04:45.448Z,0.93
2022-08-30T19:07:14.719Z,1.02
2022-08-30T19:09:42.098Z,1.30
2022-08-30T19:12:11.641Z,0.88
2022-08-30T19:14:39.048Z,1.30
2022-08-30T19:17:07.345Z,0.98
2022-08-30T19:19:37.127Z,0.88
2022-08-30T19:22:21.037Z,1.35
2022-08-30T19:24:49.958Z,1.08
2022-08-30T19:27:21.576Z,1.20
2022-08-30T19:30:21.564Z,1.08
2022-08-30T19:32:51.798Z,0.98
2022-08-30T19:35:19.697Z,1.30
2022-08-30T19:37:46.552Z,1.15
2022-08-30T19:40:16.377Z,0.85
2022-08-30T19:42:46.138Z,0.95
2022-08-30T19:45:18.512Z,1.00
2022-08-30T19:47:46.705Z,0.75
2022-08-30T19:50:14.312Z,1.10
2022-08-30T19:52:54.635Z,1.10
2022-08-30T19:55:28.727Z,1.02
2022-08-30T19:58:00.215Z,0.90
2022-08-30T20:00:31.260Z,0.90
2022-08-30T20:03:11.141Z,1.02
2022-08-30T20:05:40.218Z,0.80
2022-08-30T20:08:07.298Z,1.05
2022-08-30T20:10:37.342Z,0.60
2022-08-30T20:13:10.235Z,0.68
2022-08-30T20:15:40.726Z,1.10
2022-08-30T20:18:13.534Z,0.82
2022-08-30T20:20:49.519Z,0.80
2022-08-30T20:23:21.524Z,0.65
2022-08-30T20:24:26.361Z,1.10
2022-08-30T20:25:51.560Z,0.85
2022-08-30T20:28:20.482Z,1.00
2022-08-30T20:30:47.976Z,0.70
2022-08-30T20:33:14.720Z,1.08
2022-08-30T20:35:48.365Z,1.20
2022-08-30T20:38:23.667Z,0.88
2022-08-30T20:40:56.669Z,0.93
2022-08-30T20:43:27.426Z,0.77
2022-08-30T20:45:55.370Z,0.98
2022-08-30T20:48:28.548Z,0.93
2022-08-30T20:50:57.238Z,0.57
2022-08-30T20:53:24.497Z,0.80
2022-08-30T20:55:51.288Z,0.90
2022-08-30T20:58:18.201Z,1.10
2022-08-30T21:00:52.161Z,0.82
2022-08-30T21:03:25.910Z,0.85
2022-08-30T21:05:53.894Z,1.02
2022-08-30T21:08:23.722Z,0.73
2022-08-30T21:10:55.805Z,0.75
2022-08-30T21:13:22.969Z,0.77
2022-08-30T21:16:00.599Z,0.77
2022-08-30T21:18:32.803Z,0.82
2022-08-30T21:21:07.412Z,0.70
2022-08-30T21:23:40.235Z,0.90
2022-08-30T21:26:08.723Z,0.80
2022-08-30T21:28:38.089Z,0.85
2022-08-30T21:31:19.460Z,0.80
2022-08-30T21:33:47.820Z,0.77
2022-08-30T21:36:34.358Z,1.00
2022-08-30T21:39:01.182Z,0.85
2022-08-30T21:41:28.567Z,0.90
2022-08-30T21:43:57.979Z,0.80
2022-08-30T21:46:26.459Z,1.13
2022-08-30T21:49:01.611Z,1.10
2022-08-30T21:51:41.649Z,1.08
2022-08-30T21:54:10.811Z,0.95
2022-08-30T21:56:39.602Z,1.00
2022-08-30T21:59:07.577Z,1.08
2022-08-30T22:01:36.203Z,0.93
2022-08-30T22:04:07.461Z,0.90
2022-08-30T22:06:43.852Z,1.15
2022-08-30T22:09:13.825Z,0.90
2022-08-30T22:11:41.978Z,0.90
2022-08-30T22:14:14.868Z,0.85
2022-08-30T22:16:43.307Z,1.10
2022-08-30T22:19:10.157Z,1.08
2022-08-30T22:21:38.048Z,0.98
2022-08-30T22:24:05.287Z,1.13
2022-08-30T22:26:38.371Z,0.90
2022-08-30T22:29:06.790Z,1.05
2022-08-30T22:31:41.541Z,0.70
2022-08-30T22:34:10.122Z,1.10
2022-08-30T22:36:39.230Z,1.25
2022-08-30T22:39:08.901Z,1.00
2022-08-30T22:41:39.541Z,0.85
2022-08-30T22:44:11.410Z,0.73
2022-08-30T22:46:43.425Z,0.88
2022-08-30T22:49:13.218Z,0.90
2022-08-30T22:51:45.381Z,0.73
2022-08-30T22:54:19.449Z,1.25
2022-08-30T22:56:49.818Z,0.73
2022-08-30T22:59:16.529Z,0.85
2022-08-30T23:01:48.884Z,0.75
2022-08-30T23:04:18.486Z,1.50
2022-08-30T23:06:50.096Z,1.05
2022-08-30T23:09:21.198Z,0.80
2022-08-30T23:11:50.404Z,0.88
2022-08-30T23:14:19.400Z,1.00
2022-08-30T23:16:49.078Z,1.52
2022-08-30T23:19:21.001Z,0.70
2022-08-30T23:21:50.906Z,0.90
2022-08-30T23:24:36.169Z,1.25
2022-08-30T23:27:25.174Z,0.77
2022-08-30T23:30:10.556Z,0.82
2022-08-30T23:33:01.076Z,0.88
2022-08-30T23:35:55.427Z,1.10
2022-08-30T23:38:47.985Z,0.70
2022-08-30T23:41:36.075Z,0.88
2022-08-30T23:44:21.514Z,0.80
2022-08-30T23:47:08.530Z,0.88
2022-08-30T23:49:54.219Z,0.85
2022-08-30T23:52:40.390Z,0.80
2022-08-30T23:55:26.905Z,0.70
2022-08-30T23:58:12.560Z,0.80
